createdAt,value
2022-12-05T00:03:11.746Z,101422.00
2022-12-05T00:09:16.237Z,101436.78
2022-12-05T00:15:20.405Z,101439.63
2022-12-05T00:21:32.159Z,101434.00
2022-12-05T00:27:35.720Z,101350.47
2022-12-05T00:33:38.206Z,101360.53
2022-12-05T00:39:40.667Z,101410.16
2022-12-05T00:45:45.048Z,101408.31
2022-12-05T00:51:47.961Z,101437.81
2022-12-05T00:57:53.155Z,101430.91
2022-12-05T01:04:06.743Z,101429.16
2022-12-05T01:10:10.141Z,101414.97
2022-12-05T01:16:22.661Z,101406.25
2022-12-05T01:22:25.152Z,101356.34
2022-12-05T01:28:29.651Z,101388.94
2022-12-05T01:34:35.143Z,101363.72
2022-12-05T01:40:43.566Z,101375.09
2022-12-05T01:46:52.067Z,101394.66
2022-12-05T01:52:54.522Z,101296.97
2022-12-05T01:58:56.979Z,101381.38
2022-12-05T02:05:16.770Z,101345.22
2022-12-05T02:11:20.000Z,101386.94
2022-12-05T02:17:37.548Z,101389.34
2022-12-05T02:23:52.011Z,101380.31
2022-12-05T02:30:16.595Z,101381.63
2022-12-05T02:36:55.615Z,101376.31
2022-12-05T02:42:58.693Z,101377.03
2022-12-05T02:49:10.712Z,101376.31
2022-12-05T02:55:15.680Z,101380.81
2022-12-05T03:01:20.188Z,101385.09
2022-12-05T03:07:26.672Z,101372.38
2022-12-05T03:13:38.123Z,101394.66
2022-12-05T03:20:05.353Z,101385.81
2022-12-05T03:26:22.272Z,101397.31
2022-12-05T03:32:27.685Z,101397.22
2022-12-05T03:38:46.242Z,101387.22
2022-12-05T03:45:13.790Z,101346.53
2022-12-05T03:51:19.269Z,101395.94
2022-12-05T03:57:46.934Z,101395.53
2022-12-05T04:03:54.602Z,101392.13
2022-12-05T04:10:01.242Z,101387.88
2022-12-05T04:16:36.514Z,101326.53
2022-12-05T04:22:39.953Z,101373.94
2022-12-05T04:29:13.610Z,101251.28
2022-12-05T04:35:27.143Z,101330.59
2022-12-05T04:41:40.653Z,101369.31
2022-12-05T04:47:49.161Z,101365.56
2022-12-05T04:53:57.072Z,101367.91
2022-12-05T05:00:01.365Z,101371.38
2022-12-05T05:06:07.205Z,101370.25
2022-12-05T05:12:14.348Z,101366.78
2022-12-05T05:18:19.615Z,101372.97
2022-12-05T05:24:24.182Z,101385.78
2022-12-05T05:30:27.600Z,101392.63
2022-12-05T05:36:32.409Z,101369.03
2022-12-05T05:42:35.584Z,101278.63
2022-12-05T05:48:39.007Z,101343.16
2022-12-05T05:54:41.457Z,101346.56
2022-12-05T06:00:43.946Z,101393.88
2022-12-05T06:06:53.444Z,101408.72
2022-12-05T06:12:56.014Z,101400.75
2022-12-05T06:19:03.279Z,101372.00
2022-12-05T06:25:07.874Z,101338.28
2022-12-05T06:31:16.554Z,101410.03
2022-12-05T06:37:18.877Z,101392.16
2022-12-05T06:43:23.295Z,101407.28
2022-12-05T06:49:34.765Z,101412.50
2022-12-05T06:55:41.350Z,101417.34
2022-12-05T07:01:48.673Z,101369.53
2022-12-05T07:07:51.370Z,101406.06
2022-12-05T07:13:54.828Z,101368.72
2022-12-05T07:19:57.556Z,101359.16
2022-12-05T07:26:00.755Z,101414.50
2022-12-05T07:32:03.214Z,101436.69
2022-12-05T07:38:05.749Z,101423.00
2022-12-05T07:44:09.078Z,101379.53
2022-12-05T07:50:11.674Z,101417.03
2022-12-05T07:56:18.144Z,101259.34
2022-12-05T08:02:20.630Z,101444.47
2022-12-05T08:08:23.198Z,101433.84
2022-12-05T08:14:25.588Z,101437.41
2022-12-05T08:20:27.291Z,101421.47
2022-12-05T08:26:31.288Z,101406.78
2022-12-05T08:32:37.934Z,101402.94
2022-12-05T08:38:45.760Z,101411.47
2022-12-05T08:44:48.976Z,101417.72
2022-12-05T08:50:51.460Z,101407.28
2022-12-05T08:56:53.939Z,101390.34
2022-12-05T09:02:57.265Z,101398.50
2022-12-05T09:09:05.302Z,101385.94
2022-12-05T09:15:09.098Z,101377.84
2022-12-05T09:21:13.676Z,101363.81
2022-12-05T09:27:15.679Z,101355.66
2022-12-05T09:33:19.792Z,101360.16
2022-12-05T09:39:22.313Z,101246.59
2022-12-05T09:45:37.923Z,101357.09
2022-12-05T09:51:49.606Z,101351.94
2022-12-05T09:58:01.846Z,101300.88
2022-12-05T10:04:40.609Z,101341.66
2022-12-05T10:10:48.151Z,101326.38
2022-12-05T10:16:59.410Z,101313.59
2022-12-05T10:23:18.728Z,101319.50
2022-12-05T10:29:52.736Z,101289.13
2022-12-05T10:35:55.086Z,101316.03
2022-12-05T10:41:56.968Z,101301.28
2022-12-05T10:48:00.106Z,101292.16
2022-12-05T10:54:13.630Z,101288.09
2022-12-05T11:00:20.104Z,101279.66
2022-12-05T11:06:33.691Z,101213.81
2022-12-05T11:12:44.179Z,101270.72
2022-12-05T11:18:50.640Z,101267.50
2022-12-05T11:24:53.121Z,101250.31
2022-12-05T11:31:03.661Z,101241.88
2022-12-05T11:37:13.169Z,101236.25
2022-12-05T11:43:26.355Z,101240.56
2022-12-05T11:49:34.169Z,101207.22
2022-12-05T11:55:51.746Z,101237.69
2022-12-05T12:02:29.210Z,101230.25
2022-12-05T12:09:06.606Z,101222.38
2022-12-05T12:15:34.462Z,101196.41
2022-12-05T12:22:02.167Z,101199.00
2022-12-05T12:28:31.697Z,101198.56
2022-12-05T12:34:57.445Z,101211.94
2022-12-05T12:41:33.899Z,101211.84
2022-12-05T12:48:04.471Z,101200.13
2022-12-05T12:55:03.459Z,101203.59
2022-12-05T13:01:25.124Z,101204.28
2022-12-05T13:07:34.341Z,101137.09
2022-12-05T13:13:51.875Z,101201.72
2022-12-05T13:19:54.361Z,101190.94
2022-12-05T13:25:59.829Z,101107.97
2022-12-05T13:32:06.361Z,101199.56
2022-12-05T13:38:42.950Z,101194.25
2022-12-05T13:44:54.444Z,101193.47
2022-12-05T13:51:02.936Z,101134.22
2022-12-05T13:57:06.408Z,101196.56
2022-12-05T14:03:35.002Z,101210.34
2022-12-05T14:09:52.523Z,101139.53
2022-12-05T14:15:56.022Z,101210.84
2022-12-05T14:22:08.505Z,101200.19
2022-12-05T14:28:33.090Z,101204.19
2022-12-05T14:34:48.614Z,101206.63
2022-12-05T14:40:52.098Z,101203.00
2022-12-05T14:46:54.573Z,101208.50
2022-12-05T14:53:39.240Z,101214.88
2022-12-05T15:00:04.965Z,101200.03
2022-12-05T15:06:16.288Z,101198.00
2022-12-05T15:12:28.815Z,101182.19
2022-12-05T15:18:35.336Z,101197.03
2022-12-05T15:24:39.844Z,101172.44
2022-12-05T15:30:44.278Z,101200.38
2022-12-05T15:36:52.762Z,101192.78
2022-12-05T15:42:57.210Z,101187.13
2022-12-05T15:49:02.702Z,101184.47
2022-12-05T15:55:16.219Z,101114.56
2022-12-05T16:01:26.834Z,101190.31
2022-12-05T16:07:40.368Z,101197.16
2022-12-05T16:13:54.148Z,101185.97
2022-12-05T16:20:23.747Z,101196.00
2022-12-05T16:26:25.870Z,101141.38
2022-12-05T16:32:32.326Z,101097.69
2022-12-05T16:38:34.880Z,101151.19
2022-12-05T16:44:38.249Z,101187.53
2022-12-05T16:50:40.766Z,101191.00
2022-12-05T16:56:43.186Z,101178.63
2022-12-05T17:02:47.718Z,101170.72
2022-12-05T17:08:53.218Z,101120.09
2022-12-05T17:14:59.729Z,101176.63
2022-12-05T17:21:03.217Z,101186.25
2022-12-05T17:27:09.645Z,101167.34
2022-12-05T17:33:16.152Z,101196.72
2022-12-05T17:39:22.350Z,101176.56
2022-12-05T17:45:28.137Z,101194.72
2022-12-05T17:51:31.605Z,101176.25
2022-12-05T17:57:34.077Z,101194.50
2022-12-05T18:03:36.625Z,101162.81
2022-12-05T18:09:38.393Z,101175.59
2022-12-05T18:15:43.274Z,101151.19
2022-12-05T18:21:49.016Z,101149.69
2022-12-05T18:27:51.438Z,101130.50
2022-12-05T18:33:53.938Z,101142.47
2022-12-05T18:39:57.411Z,101160.59
2022-12-05T18:46:04.031Z,101148.53
2022-12-05T18:52:06.375Z,101066.31
2022-12-05T18:58:08.852Z,101168.06
2022-12-05T19:04:13.214Z,101137.97
2022-12-05T19:10:17.442Z,101137.66
2022-12-05T19:16:19.306Z,101157.94
2022-12-05T19:22:21.171Z,101123.44
2022-12-05T19:28:23.217Z,101119.03
2022-12-05T19:34:25.727Z,101055.00
2022-12-05T19:40:27.433Z,101140.38
2022-12-05T19:46:30.533Z,101134.56
2022-12-05T19:52:32.416Z,101143.69
2022-12-05T19:58:36.049Z,101086.81
2022-12-05T20:04:37.778Z,101102.25
2022-12-05T20:10:39.577Z,101110.25
2022-12-05T20:16:42.123Z,101113.56
2022-12-05T20:22:45.495Z,101116.72
2022-12-05T20:28:50.950Z,101110.72
2022-12-05T20:34:54.449Z,101110.25
2022-12-05T20:41:02.950Z,101085.72
2022-12-05T20:47:07.756Z,101098.13
2022-12-05T20:53:09.921Z,101095.63
2022-12-05T20:59:14.408Z,101090.38
2022-12-05T21:05:17.883Z,101068.47
2022-12-05T21:11:23.591Z,101076.09
2022-12-05T21:17:25.866Z,101062.94
2022-12-05T21:23:35.215Z,101040.97
2022-12-05T21:29:38.829Z,100976.78
2022-12-05T21:35:42.983Z,101055.13
2022-12-05T21:41:46.961Z,101044.94
2022-12-05T21:47:49.208Z,101047.59
2022-12-05T21:53:54.054Z,100997.72
2022-12-05T21:59:58.401Z,101010.50
2022-12-05T22:06:06.689Z,101027.00
2022-12-05T22:12:09.165Z,100963.00
2022-12-05T22:18:12.926Z,101011.22
2022-12-05T22:24:22.161Z,101008.06
2022-12-05T22:30:24.642Z,100973.16
2022-12-05T22:36:27.039Z,100914.38
2022-12-05T22:42:29.533Z,100962.44
2022-12-05T22:48:40.036Z,100976.91
2022-12-05T22:54:42.498Z,100979.66
2022-12-05T23:00:46.958Z,100830.22
2022-12-05T23:06:49.442Z,100963.19
2022-12-05T23:12:51.896Z,100941.47
2022-12-05T23:19:01.410Z,100953.53
2022-12-05T23:25:03.880Z,100949.59
2022-12-05T23:31:11.404Z,100942.91
2022-12-05T23:37:15.809Z,100939.56
2022-12-05T23:43:18.311Z,100942.06
2022-12-05T23:49:20.799Z,100925.84
2022-12-05T23:55:24.252Z,100872.38
